sensor_id;sensor_type;location;lat;lon;timestamp;pressure;altitude;pressure_sealevel;temperature;humidity
64292;BME280;50628;51.008;13.658;2023-03-21T00:01:20;99796.78;;;9.06;100.00
64292;BME280;50628;51.008;13.658;2023-03-21T00:06:23;99800.81;;;9.10;100.00
64292;BME280;50628;51.008;13.658;2023-03-21T00:11:25;99797.00;;;9.03;100.00
64292;BME280;50628;51.008;13.658;2023-03-21T00:16:28;99796.66;;;9.08;100.00
64292;BME280;50628;51.008;13.658;2023-03-21T00:21:32;99807.66;;;9.12;100.00
64292;BME280;50628;51.008;13.658;2023-03-21T00:26:37;99798.66;;;9.04;100.00
64292;BME280;50628;51.008;13.658;2023-03-21T00:31:39;99799.94;;;8.99;100.00
64292;BME280;50628;51.008;13.658;2023-03-21T00:36:43;99806.56;;;9.03;100.00
64292;BME280;50628;51.008;13.658;2023-03-21T00:41:44;99803.00;;;9.04;100.00
64292;BME280;50628;51.008;13.658;2023-03-21T00:46:47;99803.44;;;9.22;100.00
64292;BME280;50628;51.008;13.658;2023-03-21T00:51:50;99800.47;;;9.15;100.00
64292;BME280;50628;51.008;13.658;2023-03-21T00:56:53;99791.63;;;9.18;100.00
64292;BME280;50628;51.008;13.658;2023-03-21T01:01:55;99799.56;;;8.92;100.00
64292;BME280;50628;51.008;13.658;2023-03-21T01:07:01;99805.63;;;8.80;100.00
64292;BME280;50628;51.008;13.658;2023-03-21T01:12:03;99804.91;;;8.78;100.00
64292;BME280;50628;51.008;13.658;2023-03-21T01:17:05;99810.03;;;8.66;100.00
64292;BME280;50628;51.008;13.658;2023-03-21T01:22:08;99807.94;;;8.72;100.00
64292;BME280;50628;51.008;13.658;2023-03-21T01:27:10;99809.28;;;8.77;100.00
64292;BME280;50628;51.008;13.658;2023-03-21T01:32:12;99808.44;;;8.77;100.00
64292;BME280;50628;51.008;13.658;2023-03-21T01:37:15;99810.22;;;8.76;100.00
64292;BME280;50628;51.008;13.658;2023-03-21T01:42:22;99814.41;;;8.90;100.00
64292;BME280;50628;51.008;13.658;2023-03-21T01:47:25;99807.25;;;8.70;100.00
64292;BME280;50628;51.008;13.658;2023-03-21T01:52:39;99810.03;;;8.66;100.00
64292;BME280;50628;51.008;13.658;2023-03-21T01:57:53;99807.34;;;8.68;100.00
64292;BME280;50628;51.008;13.658;2023-03-21T02:02:58;99799.59;;;8.55;100.00
64292;BME280;50628;51.008;13.658;2023-03-21T02:08:13;99782.72;;;8.50;100.00
64292;BME280;50628;51.008;13.658;2023-03-21T02:13:15;99777.22;;;8.54;100.00
64292;BME280;50628;51.008;13.658;2023-03-21T02:18:25;99780.84;;;8.39;100.00
64292;BME280;50628;51.008;13.658;2023-03-21T02:24:07;99779.00;;;8.41;100.00
64292;BME280;50628;51.008;13.658;2023-03-21T02:29:33;99765.63;;;8.34;100.00
64292;BME280;50628;51.008;13.658;2023-03-21T02:35:03;99773.53;;;8.20;100.00
64292;BME280;50628;51.008;13.658;2023-03-21T02:40:15;99774.59;;;8.17;100.00
64292;BME280;50628;51.008;13.658;2023-03-21T02:45:22;99777.78;;;8.21;100.00
64292;BME280;50628;51.008;13.658;2023-03-21T02:50:36;99771.91;;;7.93;100.00
64292;BME280;50628;51.008;13.658;2023-03-21T02:55:43;99772.66;;;7.95;100.00
64292;BME280;50628;51.008;13.658;2023-03-21T03:00:47;99773.91;;;7.90;100.00
64292;BME280;50628;51.008;13.658;2023-03-21T03:06:03;99775.91;;;7.86;100.00
64292;BME280;50628;51.008;13.658;2023-03-21T03:11:22;99766.75;;;7.93;100.00
64292;BME280;50628;51.008;13.658;2023-03-21T03:16:28;99764.28;;;7.92;100.00
64292;BME280;50628;51.008;13.658;2023-03-21T03:21:39;99760.84;;;7.91;100.00
64292;BME280;50628;51.008;13.658;2023-03-21T03:26:46;99758.47;;;7.88;100.00
64292;BME280;50628;51.008;13.658;2023-03-21T03:31:54;99759.81;;;7.68;100.00
64292;BME280;50628;51.008;13.658;2023-03-21T03:37:02;99770.31;;;7.67;100.00
64292;BME280;50628;51.008;13.658;2023-03-21T03:42:13;99773.94;;;7.64;100.00
64292;BME280;50628;51.008;13.658;2023-03-21T03:47:24;99779.31;;;7.48;100.00
64292;BME280;50628;51.008;13.658;2023-03-21T03:52:34;99775.19;;;7.58;100.00
64292;BME280;50628;51.008;13.658;2023-03-21T03:57:46;99768.84;;;7.50;100.00
64292;BME280;50628;51.008;13.658;2023-03-21T04:02:48;99774.44;;;7.44;100.00
64292;BME280;50628;51.008;13.658;2023-03-21T04:07:54;99769.97;;;7.46;100.00
64292;BME280;50628;51.008;13.658;2023-03-21T04:13:08;99785.00;;;7.41;100.00
64292;BME280;50628;51.008;13.658;2023-03-21T04:18:30;99779.41;;;7.34;100.00
64292;BME280;50628;51.008;13.658;2023-03-21T04:23:32;99785.13;;;7.39;100.00
64292;BME280;50628;51.008;13.658;2023-03-21T04:28:37;99785.72;;;7.43;100.00
64292;BME280;50628;51.008;13.658;2023-03-21T04:34:02;99786.88;;;7.51;100.00
64292;BME280;50628;51.008;13.658;2023-03-21T04:39:09;99783.13;;;7.43;100.00
64292;BME280;50628;51.008;13.658;2023-03-21T04:44:15;99775.59;;;7.52;100.00
64292;BME280;50628;51.008;13.658;2023-03-21T04:49:18;99771.75;;;7.58;100.00
64292;BME280;50628;51.008;13.658;2023-03-21T04:54:20;99777.97;;;7.55;100.00
64292;BME280;50628;51.008;13.658;2023-03-21T04:59:24;99779.13;;;7.51;100.00
64292;BME280;50628;51.008;13.658;2023-03-21T05:04:27;99780.25;;;7.47;100.00
64292;BME280;50628;51.008;13.658;2023-03-21T05:09:30;99771.22;;;7.53;100.00
64292;BME280;50628;51.008;13.658;2023-03-21T05:14:34;99771.66;;;7.59;100.00
64292;BME280;50628;51.008;13.658;2023-03-21T05:19:36;99767.41;;;7.58;100.00
64292;BME280;50628;51.008;13.658;2023-03-21T05:24:40;99779.44;;;7.59;100.00
64292;BME280;50628;51.008;13.658;2023-03-21T05:29:48;99777.34;;;7.65;100.00
64292;BME280;50628;51.008;13.658;2023-03-21T05:34:50;99772.59;;;7.58;100.00
64292;BME280;50628;51.008;13.658;2023-03-21T05:39:56;99779.00;;;7.53;100.00
64292;BME280;50628;51.008;13.658;2023-03-21T05:45:04;99771.13;;;7.54;100.00
64292;BME280;50628;51.008;13.658;2023-03-21T05:50:09;99777.44;;;7.50;100.00
64292;BME280;50628;51.008;13.658;2023-03-21T05:55:14;99773.00;;;7.65;100.00
64292;BME280;50628;51.008;13.658;2023-03-21T06:00:18;99773.63;;;7.69;100.00
64292;BME280;50628;51.008;13.658;2023-03-21T06:05:40;99778.38;;;7.62;100.00
64292;BME280;50628;51.008;13.658;2023-03-21T06:10:50;99784.59;;;7.72;100.00
64292;BME280;50628;51.008;13.658;2023-03-21T06:15:53;99788.22;;;7.70;100.00
64292;BME280;50628;51.008;13.658;2023-03-21T06:20:59;99787.19;;;7.72;100.00
64292;BME280;50628;51.008;13.658;2023-03-21T06:26:01;99793.72;;;7.78;100.00
64292;BME280;50628;51.008;13.658;2023-03-21T06:31:05;99790.38;;;7.76;100.00
64292;BME280;50628;51.008;13.658;2023-03-21T06:36:08;99796.94;;;7.82;100.00
64292;BME280;50628;51.008;13.658;2023-03-21T06:41:11;99801.78;;;7.73;100.00
64292;BME280;50628;51.008;13.658;2023-03-21T06:46:20;99803.75;;;7.83;100.00
64292;BME280;50628;51.008;13.658;2023-03-21T06:51:22;99807.00;;;7.86;100.00
64292;BME280;50628;51.008;13.658;2023-03-21T06:56:50;99801.91;;;7.85;100.00
64292;BME280;50628;51.008;13.658;2023-03-21T07:02:01;99803.75;;;7.95;100.00
64292;BME280;50628;51.008;13.658;2023-03-21T07:07:05;99810.16;;;8.15;100.00
64292;BME280;50628;51.008;13.658;2023-03-21T07:12:07;99813.88;;;8.11;100.00
64292;BME280;50628;51.008;13.658;2023-03-21T07:17:37;99810.34;;;8.25;100.00
64292;BME280;50628;51.008;13.658;2023-03-21T07:22:39;99808.25;;;8.30;100.00
64292;BME280;50628;51.008;13.658;2023-03-21T07:27:41;99809.91;;;8.31;100.00
64292;BME280;50628;51.008;13.658;2023-03-21T07:32:44;99807.44;;;8.30;100.00
64292;BME280;50628;51.008;13.658;2023-03-21T07:37:47;99812.09;;;8.50;100.00
64292;BME280;50628;51.008;13.658;2023-03-21T07:42:50;99808.84;;;8.59;100.00
64292;BME280;50628;51.008;13.658;2023-03-21T07:48:04;99812.09;;;8.74;100.00
64292;BME280;50628;51.008;13.658;2023-03-21T07:53:08;99809.72;;;8.71;100.00
64292;BME280;50628;51.008;13.658;2023-03-21T07:58:10;99805.59;;;8.93;100.00
64292;BME280;50628;51.008;13.658;2023-03-21T08:03:13;99808.22;;;9.04;100.00
64292;BME280;50628;51.008;13.658;2023-03-21T08:08:15;99795.47;;;9.01;100.00
64292;BME280;50628;51.008;13.658;2023-03-21T08:13:17;99795.19;;;9.28;100.00
64292;BME280;50628;51.008;13.658;2023-03-21T08:18:20;99799.09;;;9.34;100.00
64292;BME280;50628;51.008;13.658;2023-03-21T08:23:23;99801.84;;;9.43;100.00
64292;BME280;50628;51.008;13.658;2023-03-21T08:28:25;99798.44;;;9.54;100.00
64292;BME280;50628;51.008;13.658;2023-03-21T08:33:28;99807.44;;;9.72;100.00
64292;BME280;50628;51.008;13.658;2023-03-21T08:38:30;99796.44;;;9.80;100.00
64292;BME280;50628;51.008;13.658;2023-03-21T08:43:33;99796.47;;;9.91;100.00
64292;BME280;50628;51.008;13.658;2023-03-21T08:48:36;99802.03;;;10.21;100.00
64292;BME280;50628;51.008;13.658;2023-03-21T08:53:38;99796.09;;;10.41;100.00
64292;BME280;50628;51.008;13.658;2023-03-21T08:58:41;99782.97;;;10.86;100.00
64292;BME280;50628;51.008;13.658;2023-03-21T09:03:45;99776.56;;;11.11;100.00
64292;BME280;50628;51.008;13.658;2023-03-21T09:08:47;99781.94;;;10.98;100.00
64292;BME280;50628;51.008;13.658;2023-03-21T09:13:52;99783.44;;;11.33;100.00
64292;BME280;50628;51.008;13.658;2023-03-21T09:18:56;99786.41;;;11.08;100.00
64292;BME280;50628;51.008;13.658;2023-03-21T09:23:58;99773.84;;;10.80;100.00
64292;BME280;50628;51.008;13.658;2023-03-21T09:29:00;99784.94;;;10.94;100.00
64292;BME280;50628;51.008;13.658;2023-03-21T09:34:06;99770.34;;;11.23;100.00
64292;BME280;50628;51.008;13.658;2023-03-21T09:39:09;99768.69;;;11.43;100.00
64292;BME280;50628;51.008;13.658;2023-03-21T09:44:20;99771.38;;;11.32;100.00
64292;BME280;50628;51.008;13.658;2023-03-21T09:49:30;99773.97;;;11.32;100.00
64292;BME280;50628;51.008;13.658;2023-03-21T09:54:36;99770.19;;;11.46;100.00
64292;BME280;50628;51.008;13.658;2023-03-21T09:59:40;99764.75;;;11.49;100.00
64292;BME280;50628;51.008;13.658;2023-03-21T10:04:43;99760.34;;;11.50;100.00
64292;BME280;50628;51.008;13.658;2023-03-21T10:09:46;99746.69;;;11.57;100.00
64292;BME280;50628;51.008;13.658;2023-03-21T10:14:50;99738.97;;;11.56;100.00
64292;BME280;50628;51.008;13.658;2023-03-21T10:20:00;99745.22;;;11.74;100.00
64292;BME280;50628;51.008;13.658;2023-03-21T10:25:14;99738.75;;;11.89;100.00
64292;BME280;50628;51.008;13.658;2023-03-21T10:30:27;99736.78;;;12.32;100.00
64292;BME280;50628;51.008;13.658;2023-03-21T10:35:32;99732.50;;;12.21;100.00
64292;BME280;50628;51.008;13.658;2023-03-21T10:40:36;99728.84;;;12.72;100.00
64292;BME280;50628;51.008;13.658;2023-03-21T10:45:38;99721.16;;;12.61;100.00
64292;BME280;50628;51.008;13.658;2023-03-21T10:50:42;99718.13;;;12.75;100.00
64292;BME280;50628;51.008;13.658;2023-03-21T10:55:49;99712.06;;;12.75;100.00
64292;BME280;50628;51.008;13.658;2023-03-21T11:00:55;99723.72;;;13.10;100.00
64292;BME280;50628;51.008;13.658;2023-03-21T11:06:01;99707.00;;;12.93;100.00
64292;BME280;50628;51.008;13.658;2023-03-21T11:11:06;99719.59;;;12.97;100.00
64292;BME280;50628;51.008;13.658;2023-03-21T11:16:09;99707.22;;;13.09;100.00
64292;BME280;50628;51.008;13.658;2023-03-21T11:21:13;99701.56;;;13.24;100.00
64292;BME280;50628;51.008;13.658;2023-03-21T11:26:18;99693.03;;;13.21;100.00
64292;BME280;50628;51.008;13.658;2023-03-21T11:31:36;99692.06;;;13.32;100.00
64292;BME280;50628;51.008;13.658;2023-03-21T11:36:39;99690.84;;;13.27;100.00
64292;BME280;50628;51.008;13.658;2023-03-21T11:41:41;99678.00;;;13.43;100.00
64292;BME280;50628;51.008;13.658;2023-03-21T11:46:47;99681.78;;;13.31;100.00
64292;BME280;50628;51.008;13.658;2023-03-21T11:52:01;99679.09;;;13.40;100.00
64292;BME280;50628;51.008;13.658;2023-03-21T11:57:12;99656.47;;;13.87;100.00
64292;BME280;50628;51.008;13.658;2023-03-21T12:02:46;99658.00;;;13.52;100.00
64292;BME280;50628;51.008;13.658;2023-03-21T12:08:02;99653.13;;;13.67;100.00
64292;BME280;50628;51.008;13.658;2023-03-21T12:13:20;99645.63;;;13.99;100.00
64292;BME280;50628;51.008;13.658;2023-03-21T12:18:40;99634.56;;;14.23;100.00
64292;BME280;50628;51.008;13.658;2023-03-21T12:23:55;99619.59;;;14.52;100.00
64292;BME280;50628;51.008;13.658;2023-03-21T12:29:10;99619.59;;;14.16;100.00
64292;BME280;50628;51.008;13.658;2023-03-21T12:34:30;99618.13;;;14.13;100.00
64292;BME280;50628;51.008;13.658;2023-03-21T12:39:39;99615.06;;;14.18;100.00
64292;BME280;50628;51.008;13.658;2023-03-21T12:44:44;99617.06;;;14.06;100.00
64292;BME280;50628;51.008;13.658;2023-03-21T12:49:48;99610.94;;;14.15;100.00
64292;BME280;50628;51.008;13.658;2023-03-21T12:54:55;99594.19;;;14.26;100.00
64292;BME280;50628;51.008;13.658;2023-03-21T13:00:00;99593.88;;;14.47;100.00
64292;BME280;50628;51.008;13.658;2023-03-21T13:05:15;99587.66;;;14.48;100.00
64292;BME280;50628;51.008;13.658;2023-03-21T13:10:20;99574.63;;;14.56;100.00
64292;BME280;50628;51.008;13.658;2023-03-21T13:15:38;99568.63;;;14.90;100.00
64292;BME280;50628;51.008;13.658;2023-03-21T13:20:46;99562.06;;;14.86;100.00
64292;BME280;50628;51.008;13.658;2023-03-21T13:25:54;99559.78;;;14.91;100.00
64292;BME280;50628;51.008;13.658;2023-03-21T13:31:16;99545.69;;;15.26;100.00
64292;BME280;50628;51.008;13.658;2023-03-21T13:36:23;99543.59;;;15.30;100.00
64292;BME280;50628;51.008;13.658;2023-03-21T13:41:31;99547.00;;;15.22;100.00
64292;BME280;50628;51.008;13.658;2023-03-21T13:46:42;99535.84;;;15.20;100.00
64292;BME280;50628;51.008;13.658;2023-03-21T13:51:46;99528.19;;;15.35;100.00
64292;BME280;50628;51.008;13.658;2023-03-21T13:56:56;99531.31;;;15.47;100.00
64292;BME280;50628;51.008;13.658;2023-03-21T14:01:59;99526.91;;;15.47;100.00
64292;BME280;50628;51.008;13.658;2023-03-21T14:07:05;99525.91;;;15.40;100.00
64292;BME280;50628;51.008;13.658;2023-03-21T14:12:13;99521.41;;;15.24;100.00
64292;BME280;50628;51.008;13.658;2023-03-21T14:17:22;99505.53;;;15.18;100.00
64292;BME280;50628;51.008;13.658;2023-03-21T14:22:24;99505.94;;;15.47;100.00
64292;BME280;50628;51.008;13.658;2023-03-21T14:27:30;99486.09;;;15.53;100.00
64292;BME280;50628;51.008;13.658;2023-03-21T14:32:34;99483.16;;;15.56;100.00
64292;BME280;50628;51.008;13.658;2023-03-21T14:37:38;99476.91;;;15.49;100.00
64292;BME280;50628;51.008;13.658;2023-03-21T14:42:45;99471.97;;;15.46;100.00
64292;BME280;50628;51.008;13.658;2023-03-21T14:47:55;99474.13;;;15.42;100.00
64292;BME280;50628;51.008;13.658;2023-03-21T14:52:58;99468.31;;;15.14;100.00
64292;BME280;50628;51.008;13.658;2023-03-21T14:58:01;99460.31;;;15.32;100.00
64292;BME280;50628;51.008;13.658;2023-03-21T15:03:03;99456.19;;;15.21;100.00
64292;BME280;50628;51.008;13.658;2023-03-21T15:08:07;99451.09;;;14.69;100.00
64292;BME280;50628;51.008;13.658;2023-03-21T15:13:17;99450.53;;;14.83;100.00
64292;BME280;50628;51.008;13.658;2023-03-21T15:18:24;99444.31;;;14.84;100.00
64292;BME280;50628;51.008;13.658;2023-03-21T15:23:30;99446.06;;;14.76;100.00
64292;BME280;50628;51.008;13.658;2023-03-21T15:28:35;99442.09;;;14.71;100.00
64292;BME280;50628;51.008;13.658;2023-03-21T15:33:37;99444.09;;;14.69;100.00
64292;BME280;50628;51.008;13.658;2023-03-21T15:38:40;99440.13;;;14.65;100.00
64292;BME280;50628;51.008;13.658;2023-03-21T15:43:47;99438.53;;;14.73;100.00
64292;BME280;50628;51.008;13.658;2023-03-21T15:49:05;99435.63;;;14.49;100.00
64292;BME280;50628;51.008;13.658;2023-03-21T15:54:10;99429.94;;;14.54;100.00
64292;BME280;50628;51.008;13.658;2023-03-21T15:59:15;99424.81;;;14.53;100.00
64292;BME280;50628;51.008;13.658;2023-03-21T16:04:19;99420.38;;;14.45;100.00
64292;BME280;50628;51.008;13.658;2023-03-21T16:09:23;99423.81;;;14.45;100.00
64292;BME280;50628;51.008;13.658;2023-03-21T16:14:27;99429.50;;;14.41;100.00
64292;BME280;50628;51.008;13.658;2023-03-21T16:19:29;99419.41;;;14.20;100.00
64292;BME280;50628;51.008;13.658;2023-03-21T16:24:30;99422.44;;;14.07;100.00
64292;BME280;50628;51.008;13.658;2023-03-21T16:29:34;99427.38;;;14.10;100.00
64292;BME280;50628;51.008;13.658;2023-03-21T16:34:35;99421.78;;;14.05;100.00
64292;BME280;50628;51.008;13.658;2023-03-21T16:39:37;99418.84;;;14.08;100.00
64292;BME280;50628;51.008;13.658;2023-03-21T16:44:41;99422.09;;;14.02;100.00
64292;BME280;50628;51.008;13.658;2023-03-21T16:49:43;99425.63;;;13.93;100.00
64292;BME280;50628;51.008;13.658;2023-03-21T16:54:45;99433.88;;;13.80;100.00
64292;BME280;50628;51.008;13.658;2023-03-21T16:59:48;99421.41;;;13.74;100.00
64292;BME280;50628;51.008;13.658;2023-03-21T17:05:02;99432.25;;;13.61;100.00
64292;BME280;50628;51.008;13.658;2023-03-21T17:10:15;99429.84;;;13.68;100.00
64292;BME280;50628;51.008;13.658;2023-03-21T17:15:19;99433.50;;;13.57;100.00
64292;BME280;50628;51.008;13.658;2023-03-21T17:20:23;99431.16;;;13.46;100.00
64292;BME280;50628;51.008;13.658;2023-03-21T17:25:25;99425.91;;;13.46;100.00
64292;BME280;50628;51.008;13.658;2023-03-21T17:30:30;99421.41;;;13.38;100.00
64292;BME280;50628;51.008;13.658;2023-03-21T17:35:33;99419.84;;;13.27;100.00
64292;BME280;50628;51.008;13.658;2023-03-21T17:40:34;99426.22;;;13.15;100.00
64292;BME280;50628;51.008;13.658;2023-03-21T17:45:38;99434.97;;;13.06;100.00
64292;BME280;50628;51.008;13.658;2023-03-21T17:50:40;99423.94;;;12.84;100.00
64292;BME280;50628;51.008;13.658;2023-03-21T17:55:42;99422.47;;;12.72;100.00
64292;BME280;50628;51.008;13.658;2023-03-21T18:00:46;99420.69;;;12.72;100.00
64292;BME280;50628;51.008;13.658;2023-03-21T18:05:47;99414.56;;;12.64;100.00
64292;BME280;50628;51.008;13.658;2023-03-21T18:10:49;99417.59;;;12.59;100.00
64292;BME280;50628;51.008;13.658;2023-03-21T18:15:53;99419.25;;;12.60;100.00
64292;BME280;50628;51.008;13.658;2023-03-21T18:20:56;99415.72;;;12.51;100.00
64292;BME280;50628;51.008;13.658;2023-03-21T18:25:58;99426.59;;;12.37;100.00
64292;BME280;50628;51.008;13.658;2023-03-21T18:31:01;99431.63;;;12.21;100.00
64292;BME280;50628;51.008;13.658;2023-03-21T18:36:05;99420.53;;;12.09;100.00
64292;BME280;50628;51.008;13.658;2023-03-21T18:41:08;99429.59;;;12.05;100.00
64292;BME280;50628;51.008;13.658;2023-03-21T18:46:11;99433.88;;;11.96;100.00
64292;BME280;50628;51.008;13.658;2023-03-21T18:51:15;99426.63;;;11.90;100.00
64292;BME280;50628;51.008;13.658;2023-03-21T18:56:17;99428.50;;;11.78;100.00
64292;BME280;50628;51.008;13.658;2023-03-21T19:01:20;99433.03;;;11.76;100.00
64292;BME280;50628;51.008;13.658;2023-03-21T19:06:22;99432.22;;;11.76;100.00
64292;BME280;50628;51.008;13.658;2023-03-21T19:11:24;99439.22;;;11.56;100.00
64292;BME280;50628;51.008;13.658;2023-03-21T19:16:28;99436.19;;;11.41;100.00
64292;BME280;50628;51.008;13.658;2023-03-21T19:21:30;99437.28;;;11.38;100.00
64292;BME280;50628;51.008;13.658;2023-03-21T19:26:32;99443.16;;;11.21;100.00
64292;BME280;50628;51.008;13.658;2023-03-21T19:31:36;99443.84;;;11.13;100.00
64292;BME280;50628;51.008;13.658;2023-03-21T19:36:38;99442.88;;;11.04;100.00
64292;BME280;50628;51.008;13.658;2023-03-21T19:41:40;99443.94;;;10.92;100.00
64292;BME280;50628;51.008;13.658;2023-03-21T19:46:43;99439.94;;;10.88;100.00
64292;BME280;50628;51.008;13.658;2023-03-21T19:51:45;99444.63;;;10.94;100.00
64292;BME280;50628;51.008;13.658;2023-03-21T19:56:47;99445.03;;;10.90;100.00
64292;BME280;50628;51.008;13.658;2023-03-21T20:01:53;99442.97;;;10.83;100.00
64292;BME280;50628;51.008;13.658;2023-03-21T20:06:54;99437.19;;;10.80;100.00
64292;BME280;50628;51.008;13.658;2023-03-21T20:11:57;99441.16;;;10.74;100.00
64292;BME280;50628;51.008;13.658;2023-03-21T20:17:02;99444.63;;;10.85;100.00
64292;BME280;50628;51.008;13.658;2023-03-21T20:22:04;99446.91;;;10.78;100.00
64292;BME280;50628;51.008;13.658;2023-03-21T20:27:09;99446.31;;;10.65;100.00
64292;BME280;50628;51.008;13.658;2023-03-21T20:32:12;99444.00;;;10.61;100.00
64292;BME280;50628;51.008;13.658;2023-03-21T20:37:14;99447.72;;;10.69;100.00
64292;BME280;50628;51.008;13.658;2023-03-21T20:42:17;99442.50;;;10.69;100.00
64292;BME280;50628;51.008;13.658;2023-03-21T20:47:20;99442.19;;;10.62;100.00
64292;BME280;50628;51.008;13.658;2023-03-21T20:57:34;99453.47;;;10.72;100.00
64292;BME280;50628;51.008;13.658;2023-03-21T21:02:37;99441.06;;;10.95;100.00
64292;BME280;50628;51.008;13.658;2023-03-21T21:07:40;99443.97;;;11.02;100.00
64292;BME280;50628;51.008;13.658;2023-03-21T21:12:42;99442.50;;;11.09;100.00
64292;BME280;50628;51.008;13.658;2023-03-21T21:17:47;99440.31;;;11.24;100.00
64292;BME280;50628;51.008;13.658;2023-03-21T21:22:49;99444.44;;;11.26;100.00
64292;BME280;50628;51.008;13.658;2023-03-21T21:27:51;99448.13;;;11.34;100.00
64292;BME280;50628;51.008;13.658;2023-03-21T21:32:55;99451.72;;;11.42;100.00
64292;BME280;50628;51.008;13.658;2023-03-21T21:37:58;99446.50;;;11.52;100.00
64292;BME280;50628;51.008;13.658;2023-03-21T21:43:00;99458.28;;;11.27;100.00
64292;BME280;50628;51.008;13.658;2023-03-21T21:48:05;99460.13;;;10.96;100.00
64292;BME280;50628;51.008;13.658;2023-03-21T21:53:09;99466.16;;;11.06;100.00
64292;BME280;50628;51.008;13.658;2023-03-21T21:58:11;99466.53;;;11.52;100.00
64292;BME280;50628;51.008;13.658;2023-03-21T22:03:15;99472.16;;;11.86;100.00
64292;BME280;50628;51.008;13.658;2023-03-21T22:08:21;99470.50;;;11.85;100.00
64292;BME280;50628;51.008;13.658;2023-03-21T22:13:23;99471.72;;;11.81;100.00
64292;BME280;50628;51.008;13.658;2023-03-21T22:18:26;99476.25;;;11.79;100.00
64292;BME280;50628;51.008;13.658;2023-03-21T22:23:28;99472.41;;;11.54;100.00
64292;BME280;50628;51.008;13.658;2023-03-21T22:28:30;99468.28;;;11.51;100.00
64292;BME280;50628;51.008;13.658;2023-03-21T22:33:33;99474.06;;;11.45;100.00
64292;BME280;50628;51.008;13.658;2023-03-21T22:38:35;99477.06;;;11.31;100.00
64292;BME280;50628;51.008;13.658;2023-03-21T22:43:37;99475.97;;;11.33;100.00
64292;BME280;50628;51.008;13.658;2023-03-21T22:48:40;99478.16;;;11.28;100.00
64292;BME280;50628;51.008;13.658;2023-03-21T22:53:42;99472.91;;;11.18;100.00
64292;BME280;50628;51.008;13.658;2023-03-21T22:58:44;99476.75;;;11.04;100.00
64292;BME280;50628;51.008;13.658;2023-03-21T23:03:48;99473.72;;;10.99;100.00
64292;BME280;50628;51.008;13.658;2023-03-21T23:08:49;99466.72;;;11.00;100.00
64292;BME280;50628;51.008;13.658;2023-03-21T23:13:51;99466.94;;;10.87;100.00
64292;BME280;50628;51.008;13.658;2023-03-21T23:18:55;99455.16;;;10.83;100.00
64292;BME280;50628;51.008;13.658;2023-03-21T23:23:57;99456.38;;;10.79;100.00
64292;BME280;50628;51.008;13.658;2023-03-21T23:28:59;99454.59;;;10.79;100.00
64292;BME280;50628;51.008;13.658;2023-03-21T23:34:02;99452.25;;;10.76;100.00
64292;BME280;50628;51.008;13.658;2023-03-21T23:39:04;99443.22;;;10.80;100.00
64292;BME280;50628;51.008;13.658;2023-03-21T23:44:07;99457.19;;;10.79;100.00
64292;BME280;50628;51.008;13.658;2023-03-21T23:49:10;99459.69;;;10.81;100.00
64292;BME280;50628;51.008;13.658;2023-03-21T23:54:12;99455.09;;;10.73;100.00
64292;BME280;50628;51.008;13.658;2023-03-21T23:59:14;99458.78;;;10.61;100.00
